sensor_id;sensor_type;location;lat;lon;timestamp;P1;durP1;ratioP1;P2;durP2;ratioP2
61673;SDS011;47573;43.832;5.974;2023-05-13T00:03:45;371.73;;;269.30;;
61673;SDS011;47573;43.832;5.974;2023-05-13T00:10:25;370.90;;;269.27;;
61673;SDS011;47573;43.832;5.974;2023-05-13T00:17:07;362.47;;;263.60;;
61673;SDS011;47573;43.832;5.974;2023-05-13T00:23:47;346.35;;;249.95;;
61673;SDS011;47573;43.832;5.974;2023-05-13T00:30:28;343.38;;;248.32;;
61673;SDS011;47573;43.832;5.974;2023-05-13T00:37:10;341.97;;;248.13;;
61673;SDS011;47573;43.832;5.974;2023-05-13T00:43:52;331.40;;;239.95;;
61673;SDS011;47573;43.832;5.974;2023-05-13T00:50:33;326.35;;;233.77;;
61673;SDS011;47573;43.832;5.974;2023-05-13T00:57:15;314.35;;;224.35;;
61673;SDS011;47573;43.832;5.974;2023-05-13T01:03:59;304.83;;;217.10;;
61673;SDS011;47573;43.832;5.974;2023-05-13T01:10:50;300.45;;;214.10;;
61673;SDS011;47573;43.832;5.974;2023-05-13T01:17:39;298.40;;;213.70;;
61673;SDS011;47573;43.832;5.974;2023-05-13T01:24:24;291.75;;;206.05;;
61673;SDS011;47573;43.832;5.974;2023-05-13T01:31:05;286.27;;;201.10;;
61673;SDS011;47573;43.832;5.974;2023-05-13T01:37:46;273.60;;;191.35;;
61673;SDS011;47573;43.832;5.974;2023-05-13T01:44:29;273.70;;;191.55;;
61673;SDS011;47573;43.832;5.974;2023-05-13T01:51:10;255.60;;;178.50;;
61673;SDS011;47573;43.832;5.974;2023-05-13T01:57:50;249.27;;;170.85;;
61673;SDS011;47573;43.832;5.974;2023-05-13T02:04:32;244.65;;;167.68;;
61673;SDS011;47573;43.832;5.974;2023-05-13T02:11:12;243.43;;;166.13;;
61673;SDS011;47573;43.832;5.974;2023-05-13T02:17:53;232.37;;;158.30;;
61673;SDS011;47573;43.832;5.974;2023-05-13T02:24:35;223.43;;;149.97;;
61673;SDS011;47573;43.832;5.974;2023-05-13T02:31:15;220.38;;;148.98;;
61673;SDS011;47573;43.832;5.974;2023-05-13T02:37:56;217.50;;;147.95;;
61673;SDS011;47573;43.832;5.974;2023-05-13T02:44:38;219.23;;;145.68;;
61673;SDS011;47573;43.832;5.974;2023-05-13T02:51:19;216.52;;;143.30;;
61673;SDS011;47573;43.832;5.974;2023-05-13T02:57:59;202.27;;;137.97;;
61673;SDS011;47573;43.832;5.974;2023-05-13T03:04:41;198.50;;;133.73;;
61673;SDS011;47573;43.832;5.974;2023-05-13T03:11:22;197.43;;;132.70;;
61673;SDS011;47573;43.832;5.974;2023-05-13T03:18:02;195.10;;;132.13;;
61673;SDS011;47573;43.832;5.974;2023-05-13T03:24:44;186.88;;;126.45;;
61673;SDS011;47573;43.832;5.974;2023-05-13T03:31:25;180.48;;;124.35;;
61673;SDS011;47573;43.832;5.974;2023-05-13T03:38:05;173.77;;;119.15;;
61673;SDS011;47573;43.832;5.974;2023-05-13T03:44:47;172.73;;;116.50;;
61673;SDS011;47573;43.832;5.974;2023-05-13T03:51:27;171.30;;;116.03;;
61673;SDS011;47573;43.832;5.974;2023-05-13T03:58:11;156.43;;;108.10;;
61673;SDS011;47573;43.832;5.974;2023-05-13T04:04:53;160.65;;;108.93;;
61673;SDS011;47573;43.832;5.974;2023-05-13T04:11:34;156.02;;;105.13;;
61673;SDS011;47573;43.832;5.974;2023-05-13T04:18:14;149.32;;;100.82;;
61673;SDS011;47573;43.832;5.974;2023-05-13T04:24:56;152.07;;;100.20;;
61673;SDS011;47573;43.832;5.974;2023-05-13T04:31:37;142.52;;;96.32;;
61673;SDS011;47573;43.832;5.974;2023-05-13T04:38:17;135.00;;;91.88;;
61673;SDS011;47573;43.832;5.974;2023-05-13T04:44:59;136.17;;;88.47;;
61673;SDS011;47573;43.832;5.974;2023-05-13T04:51:40;269.13;;;111.93;;
61673;SDS011;47573;43.832;5.974;2023-05-13T04:58:20;74.45;;;46.65;;
61673;SDS011;47573;43.832;5.974;2023-05-13T05:05:02;224.63;;;84.73;;
61673;SDS011;47573;43.832;5.974;2023-05-13T05:11:43;122.45;;;50.60;;
61673;SDS011;47573;43.832;5.974;2023-05-13T05:18:23;112.50;;;49.22;;
61673;SDS011;47573;43.832;5.974;2023-05-13T05:25:05;178.73;;;69.87;;
61673;SDS011;47573;43.832;5.974;2023-05-13T05:31:47;227.77;;;77.50;;
61673;SDS011;47573;43.832;5.974;2023-05-13T05:38:27;90.40;;;38.35;;
61673;SDS011;47573;43.832;5.974;2023-05-13T05:45:09;133.80;;;48.80;;
61673;SDS011;47573;43.832;5.974;2023-05-13T05:51:50;45.65;;;22.80;;
61673;SDS011;47573;43.832;5.974;2023-05-13T05:58:30;167.38;;;60.58;;
61673;SDS011;47573;43.832;5.974;2023-05-13T06:05:12;30.80;;;19.43;;
61673;SDS011;47573;43.832;5.974;2023-05-13T06:11:53;29.60;;;18.50;;
61673;SDS011;47573;43.832;5.974;2023-05-13T06:18:33;28.13;;;19.43;;
61673;SDS011;47573;43.832;5.974;2023-05-13T06:25:15;26.70;;;17.83;;
61673;SDS011;47573;43.832;5.974;2023-05-13T06:31:56;27.05;;;18.15;;
61673;SDS011;47573;43.832;5.974;2023-05-13T06:38:36;24.93;;;16.37;;
61673;SDS011;47573;43.832;5.974;2023-05-13T06:45:18;24.53;;;17.20;;
61673;SDS011;47573;43.832;5.974;2023-05-13T06:51:59;24.27;;;16.75;;
61673;SDS011;47573;43.832;5.974;2023-05-13T06:58:39;22.83;;;15.90;;
61673;SDS011;47573;43.832;5.974;2023-05-13T07:05:21;21.97;;;15.20;;
61673;SDS011;47573;43.832;5.974;2023-05-13T07:12:02;23.70;;;15.73;;
61673;SDS011;47573;43.832;5.974;2023-05-13T07:18:43;22.30;;;15.25;;
61673;SDS011;47573;43.832;5.974;2023-05-13T07:25:24;22.27;;;15.77;;
61673;SDS011;47573;43.832;5.974;2023-05-13T07:32:05;21.50;;;14.63;;
61673;SDS011;47573;43.832;5.974;2023-05-13T07:38:46;19.05;;;13.75;;
61673;SDS011;47573;43.832;5.974;2023-05-13T07:45:28;19.93;;;14.00;;
61673;SDS011;47573;43.832;5.974;2023-05-13T07:52:08;20.52;;;14.52;;
61673;SDS011;47573;43.832;5.974;2023-05-13T07:58:49;18.00;;;13.57;;
61673;SDS011;47573;43.832;5.974;2023-05-13T08:05:31;18.60;;;13.70;;
61673;SDS011;47573;43.832;5.974;2023-05-13T08:12:11;18.02;;;13.40;;
61673;SDS011;47573;43.832;5.974;2023-05-13T08:18:52;17.80;;;13.33;;
61673;SDS011;47573;43.832;5.974;2023-05-13T08:25:33;18.33;;;13.07;;
61673;SDS011;47573;43.832;5.974;2023-05-13T08:32:14;18.33;;;12.90;;
61673;SDS011;47573;43.832;5.974;2023-05-13T08:38:55;16.30;;;12.10;;
61673;SDS011;47573;43.832;5.974;2023-05-13T08:45:36;16.30;;;12.17;;
61673;SDS011;47573;43.832;5.974;2023-05-13T08:52:19;15.38;;;11.57;;
61673;SDS011;47573;43.832;5.974;2023-05-13T08:59:01;15.05;;;11.25;;
61673;SDS011;47573;43.832;5.974;2023-05-13T09:05:43;132.47;;;54.73;;
61673;SDS011;47573;43.832;5.974;2023-05-13T09:19:24;24.75;;;14.60;;
61673;SDS011;47573;43.832;5.974;2023-05-13T09:26:06;268.73;;;94.23;;
61673;SDS011;47573;43.832;5.974;2023-05-13T09:33:07;22.58;;;13.20;;
61673;SDS011;47573;43.832;5.974;2023-05-13T09:39:50;15.95;;;10.77;;
61673;SDS011;47573;43.832;5.974;2023-05-13T09:46:32;79.75;;;33.83;;
61673;SDS011;47573;43.832;5.974;2023-05-13T09:53:13;28.33;;;15.38;;
61673;SDS011;47573;43.832;5.974;2023-05-13T09:59:56;14.90;;;11.07;;
61673;SDS011;47573;43.832;5.974;2023-05-13T10:06:38;14.23;;;10.30;;
61673;SDS011;47573;43.832;5.974;2023-05-13T10:13:19;15.02;;;10.40;;
61673;SDS011;47573;43.832;5.974;2023-05-13T10:20:03;544.78;;;275.73;;
61673;SDS011;47573;43.832;5.974;2023-05-13T10:26:46;16.63;;;11.23;;
61673;SDS011;47573;43.832;5.974;2023-05-13T10:33:27;16.08;;;11.18;;
61673;SDS011;47573;43.832;5.974;2023-05-13T10:40:28;27.00;;;15.00;;
61673;SDS011;47573;43.832;5.974;2023-05-13T10:47:19;16.00;;;10.98;;
61673;SDS011;47573;43.832;5.974;2023-05-13T10:53:59;180.10;;;89.03;;
61673;SDS011;47573;43.832;5.974;2023-05-13T11:00:40;17.20;;;10.97;;
61673;SDS011;47573;43.832;5.974;2023-05-13T11:07:23;17.23;;;10.73;;
61673;SDS011;47573;43.832;5.974;2023-05-13T11:14:08;13.38;;;9.95;;
61673;SDS011;47573;43.832;5.974;2023-05-13T11:20:54;13.93;;;9.95;;
61673;SDS011;47573;43.832;5.974;2023-05-13T11:27:38;676.80;;;289.73;;
61673;SDS011;47573;43.832;5.974;2023-05-13T11:34:19;20.92;;;11.77;;
61673;SDS011;47573;43.832;5.974;2023-05-13T11:41:00;14.98;;;10.45;;
61673;SDS011;47573;43.832;5.974;2023-05-13T11:47:43;13.65;;;10.07;;
61673;SDS011;47573;43.832;5.974;2023-05-13T11:54:23;126.22;;;62.92;;
61673;SDS011;47573;43.832;5.974;2023-05-13T12:01:04;90.47;;;50.03;;
61673;SDS011;47573;43.832;5.974;2023-05-13T12:07:46;238.00;;;117.50;;
61673;SDS011;47573;43.832;5.974;2023-05-13T12:14:26;166.45;;;83.82;;
61673;SDS011;47573;43.832;5.974;2023-05-13T12:21:14;157.23;;;79.97;;
61673;SDS011;47573;43.832;5.974;2023-05-13T12:27:56;153.77;;;77.35;;
61673;SDS011;47573;43.832;5.974;2023-05-13T12:34:36;141.48;;;73.47;;
61673;SDS011;47573;43.832;5.974;2023-05-13T12:41:17;138.82;;;74.47;;
61673;SDS011;47573;43.832;5.974;2023-05-13T12:47:59;180.13;;;99.20;;
61673;SDS011;47573;43.832;5.974;2023-05-13T12:54:40;199.35;;;108.10;;
61673;SDS011;47573;43.832;5.974;2023-05-13T13:01:21;158.40;;;95.83;;
61673;SDS011;47573;43.832;5.974;2023-05-13T13:08:03;196.50;;;114.35;;
61673;SDS011;47573;43.832;5.974;2023-05-13T13:14:44;208.20;;;122.60;;
61673;SDS011;47573;43.832;5.974;2023-05-13T13:21:25;291.30;;;152.17;;
61673;SDS011;47573;43.832;5.974;2023-05-13T13:28:07;216.30;;;130.90;;
61673;SDS011;47573;43.832;5.974;2023-05-13T13:34:47;211.60;;;129.50;;
61673;SDS011;47573;43.832;5.974;2023-05-13T13:41:28;201.17;;;123.60;;
61673;SDS011;47573;43.832;5.974;2023-05-13T13:48:09;199.68;;;121.55;;
61673;SDS011;47573;43.832;5.974;2023-05-13T13:54:50;196.40;;;120.25;;
61673;SDS011;47573;43.832;5.974;2023-05-13T14:01:31;182.77;;;115.13;;
61673;SDS011;47573;43.832;5.974;2023-05-13T14:08:12;179.18;;;113.15;;
61673;SDS011;47573;43.832;5.974;2023-05-13T14:14:53;182.40;;;113.60;;
61673;SDS011;47573;43.832;5.974;2023-05-13T14:21:34;172.30;;;108.83;;
61673;SDS011;47573;43.832;5.974;2023-05-13T14:28:15;172.93;;;108.38;;
61673;SDS011;47573;43.832;5.974;2023-05-13T14:34:56;164.27;;;106.03;;
61673;SDS011;47573;43.832;5.974;2023-05-13T14:41:37;155.33;;;102.47;;
61673;SDS011;47573;43.832;5.974;2023-05-13T14:48:18;183.88;;;120.15;;
61673;SDS011;47573;43.832;5.974;2023-05-13T14:54:59;165.48;;;108.60;;
61673;SDS011;47573;43.832;5.974;2023-05-13T15:01:40;165.43;;;109.87;;
61673;SDS011;47573;43.832;5.974;2023-05-13T15:08:22;189.00;;;123.20;;
61673;SDS011;47573;43.832;5.974;2023-05-13T15:15:02;200.80;;;134.43;;
61673;SDS011;47573;43.832;5.974;2023-05-13T15:21:44;223.95;;;149.35;;
61673;SDS011;47573;43.832;5.974;2023-05-13T15:28:25;253.17;;;174.10;;
61673;SDS011;47573;43.832;5.974;2023-05-13T15:35:06;247.05;;;165.20;;
61673;SDS011;47573;43.832;5.974;2023-05-13T15:41:47;247.60;;;163.30;;
61673;SDS011;47573;43.832;5.974;2023-05-13T15:48:29;254.40;;;171.35;;
61673;SDS011;47573;43.832;5.974;2023-05-13T15:55:10;286.27;;;197.50;;
61673;SDS011;47573;43.832;5.974;2023-05-13T16:01:50;286.10;;;199.83;;
61673;SDS011;47573;43.832;5.974;2023-05-13T16:08:32;280.80;;;184.30;;
61673;SDS011;47573;43.832;5.974;2023-05-13T16:15:13;301.50;;;206.48;;
61673;SDS011;47573;43.832;5.974;2023-05-13T16:21:53;304.17;;;214.40;;
61673;SDS011;47573;43.832;5.974;2023-05-13T16:28:35;308.85;;;210.63;;
61673;SDS011;47573;43.832;5.974;2023-05-13T16:35:17;308.75;;;209.00;;
61673;SDS011;47573;43.832;5.974;2023-05-13T16:41:58;341.92;;;238.27;;
61673;SDS011;47573;43.832;5.974;2023-05-13T16:48:39;355.92;;;245.77;;
61673;SDS011;47573;43.832;5.974;2023-05-13T16:55:20;339.35;;;240.65;;
61673;SDS011;47573;43.832;5.974;2023-05-13T17:02:00;321.33;;;225.93;;
61673;SDS011;47573;43.832;5.974;2023-05-13T17:08:42;318.20;;;221.60;;
61673;SDS011;47573;43.832;5.974;2023-05-13T17:15:23;340.58;;;241.52;;
61673;SDS011;47573;43.832;5.974;2023-05-13T17:22:03;361.67;;;252.87;;
61673;SDS011;47573;43.832;5.974;2023-05-13T17:28:45;381.88;;;270.13;;
61673;SDS011;47573;43.832;5.974;2023-05-13T17:35:26;360.70;;;256.73;;
61673;SDS011;47573;43.832;5.974;2023-05-13T17:42:06;389.52;;;271.52;;
61673;SDS011;47573;43.832;5.974;2023-05-13T17:48:48;380.33;;;269.42;;
61673;SDS011;47573;43.832;5.974;2023-05-13T17:55:29;367.25;;;256.65;;
61673;SDS011;47573;43.832;5.974;2023-05-13T18:02:09;371.03;;;255.07;;
61673;SDS011;47573;43.832;5.974;2023-05-13T18:08:51;362.08;;;252.75;;
61673;SDS011;47573;43.832;5.974;2023-05-13T18:15:32;376.10;;;261.08;;
61673;SDS011;47573;43.832;5.974;2023-05-13T18:22:12;354.60;;;246.43;;
61673;SDS011;47573;43.832;5.974;2023-05-13T18:28:54;453.67;;;268.13;;
61673;SDS011;47573;43.832;5.974;2023-05-13T18:35:35;317.10;;;212.32;;
61673;SDS011;47573;43.832;5.974;2023-05-13T18:42:16;347.65;;;229.57;;
61673;SDS011;47573;43.832;5.974;2023-05-13T18:48:57;333.27;;;219.93;;
61673;SDS011;47573;43.832;5.974;2023-05-13T18:55:38;316.00;;;211.80;;
61673;SDS011;47573;43.832;5.974;2023-05-13T19:02:18;318.00;;;212.70;;
61673;SDS011;47573;43.832;5.974;2023-05-13T19:09:00;305.30;;;201.10;;
61673;SDS011;47573;43.832;5.974;2023-05-13T19:15:41;295.20;;;194.48;;
61673;SDS011;47573;43.832;5.974;2023-05-13T19:22:21;291.90;;;192.83;;
61673;SDS011;47573;43.832;5.974;2023-05-13T19:29:03;287.35;;;190.68;;
61673;SDS011;47573;43.832;5.974;2023-05-13T19:35:44;286.13;;;182.00;;
61673;SDS011;47573;43.832;5.974;2023-05-13T19:42:24;280.70;;;185.13;;
61673;SDS011;47573;43.832;5.974;2023-05-13T19:49:06;270.48;;;174.85;;
61673;SDS011;47573;43.832;5.974;2023-05-13T19:55:47;272.30;;;171.02;;
61673;SDS011;47573;43.832;5.974;2023-05-13T20:02:27;263.00;;;166.53;;
61673;SDS011;47573;43.832;5.974;2023-05-13T20:09:09;262.20;;;165.57;;
61673;SDS011;47573;43.832;5.974;2023-05-13T20:15:50;308.17;;;208.60;;
61673;SDS011;47573;43.832;5.974;2023-05-13T20:22:30;304.80;;;205.13;;
61673;SDS011;47573;43.832;5.974;2023-05-13T20:29:12;326.00;;;222.90;;
61673;SDS011;47573;43.832;5.974;2023-05-13T20:35:53;315.92;;;216.30;;
61673;SDS011;47573;43.832;5.974;2023-05-13T20:42:33;315.23;;;219.73;;
61673;SDS011;47573;43.832;5.974;2023-05-13T20:49:15;327.02;;;225.63;;
61673;SDS011;47573;43.832;5.974;2023-05-13T20:55:56;312.60;;;214.88;;
61673;SDS011;47573;43.832;5.974;2023-05-13T21:02:37;341.90;;;240.87;;
61673;SDS011;47573;43.832;5.974;2023-05-13T21:09:18;351.70;;;250.90;;
61673;SDS011;47573;43.832;5.974;2023-05-13T21:16:01;343.95;;;238.85;;
61673;SDS011;47573;43.832;5.974;2023-05-13T21:22:42;363.05;;;255.77;;
